»·PEaware :: N796A KRAL-KBLH

N796A :: KRAL-KBLH

FLIGHT INFORMATION

Flight Status: Arrived
Operator: Privately registered:
United States
More flights under this callsign
Pilot: Alan J. (5709)
Aircraft: CESSNA 340
(C340)
More flights by this aircraft type
Origin: KRAL Riverside Mun
United States
Destination: KBLH Blythe
United States
More flights between these airports :: More routes between these airports
Route: +PDZ V16 BLH
File this flight plan on PilotEdge
Remarks:
Altitude:
(Current/Filed)
19,000ft
Speed:
(Current/Filed)
200kts
Departed: 06-Nov-17 10:39 AM
Arrived: 06-Nov-17 11:41 AM
Distance/Time
Traveled:
138nm/1:02
Distance/Time
To Go:
Arrived

Flight Plot

Page will automatically refresh every two minutes.

Flight plan parsing failed; only flown route is shown


Map Options




Map Legend


Flown Route
Filed Route
Departure Airport
Arrival Airport
Navaid (VOR, NDB)
Fix

Horizontal Profiles

Position Reports

Time Latitude Longitude Heading Altitude Ground
Speed
06-Nov-17 10:28 33.950883 -117.447327 10 764ft 0kts
06-Nov-17 10:29 33.950883 -117.447327 10 764ft 0kts
06-Nov-17 10:30 33.950883 -117.447327 9 764ft 0kts
06-Nov-17 10:31 33.950883 -117.447327 9 764ft 0kts
06-Nov-17 10:32 33.950883 -117.447327 9 764ft 0kts
06-Nov-17 10:33 33.950883 -117.447327 9 764ft 0kts
06-Nov-17 10:34 33.950883 -117.447327 9 764ft 0kts
06-Nov-17 10:35 33.950883 -117.447327 9 764ft 0kts
06-Nov-17 10:36 33.950883 -117.447327 9 764ft 0kts
06-Nov-17 10:37 33.950883 -117.447327 9 764ft 0kts
06-Nov-17 10:38 33.950883 -117.447327 9 764ft 0kts
06-Nov-17 10:39 33.950883 -117.447327 9 764ft 0kts
06-Nov-17 10:40 33.951352 -117.448050 354 762ft 10kts
06-Nov-17 10:41 33.952350 -117.448101 329 764ft 0kts
06-Nov-17 10:42 33.953028 -117.451567 273 755ft 12kts
06-Nov-17 10:43 33.953811 -117.451516 105 756ft 3kts
06-Nov-17 10:44 33.950322 -117.433905 105 1028ft 91kts
06-Nov-17 10:45 33.938691 -117.416353 230 2197ft 94kts
06-Nov-17 10:46 33.919526 -117.435426 216 3403ft 86kts
06-Nov-17 10:47 33.900488 -117.456812 247 4576ft 104kts
06-Nov-17 10:48 33.901671 -117.491178 267 5935ft 101kts
06-Nov-17 10:49 33.909557 -117.481470 46 7153ft 80kts
06-Nov-17 10:50 33.928727 -117.453358 96 7991ft 116kts
06-Nov-17 10:51 33.917461 -117.411783 110 8803ft 145kts
06-Nov-17 10:52 33.911276 -117.355101 100 9019ft 195kts
06-Nov-17 10:53 33.908211 -117.286743 98 9013ft 208kts
06-Nov-17 10:54 33.904167 -117.217065 91 9007ft 212kts
06-Nov-17 10:55 33.902020 -117.144653 88 9013ft 218kts
06-Nov-17 10:56 33.897455 -117.072122 85 9028ft 222kts
06-Nov-17 10:57 33.896348 -117.005741 91 10183ft 185kts
06-Nov-17 10:58 33.893857 -116.944259 93 11143ft 184kts
06-Nov-17 10:59 33.891153 -116.882199 95 12073ft 186kts
06-Nov-17 11:00 33.888201 -116.819393 95 12983ft 190kts
06-Nov-17 11:01 33.884812 -116.749590 95 13021ft 226kts
06-Nov-17 11:02 33.881290 -116.672115 95 12999ft 235kts
06-Nov-17 11:03 33.877636 -116.593030 95 12989ft 237kts
06-Nov-17 11:04 33.874152 -116.516543 95 13772ft 200kts
06-Nov-17 11:05 33.871382 -116.455915 97 15161ft 176kts
06-Nov-17 11:06 33.865152 -116.397451 107 16280ft 177kts
06-Nov-17 11:07 33.855741 -116.338739 108 17366ft 181kts
06-Nov-17 11:08 33.846176 -116.278627 109 18389ft 185kts
06-Nov-17 11:09 33.835940 -116.215449 109 19043ft 211kts
06-Nov-17 11:10 33.823710 -116.139763 107 19098ft 246kts
06-Nov-17 11:11 33.812882 -116.071022 107 19088ft 253kts
06-Nov-17 11:12 33.797619 -115.974828 107 19089ft 249kts
06-Nov-17 11:13 33.784452 -115.893207 107 19091ft 248kts
06-Nov-17 11:14 33.773535 -115.825862 107 18993ft 239kts
06-Nov-17 11:15 33.760184 -115.744640 106 17977ft 258kts
06-Nov-17 11:16 33.743895 -115.644713 105 16740ft 262kts
06-Nov-17 11:17 33.732425 -115.574521 105 15870ft 254kts
06-Nov-17 11:18 33.718924 -115.492414 104 14845ft 248kts
06-Nov-17 11:19 33.703404 -115.398736 104 13670ft 238kts
06-Nov-17 11:20 33.693033 -115.336418 99 12781ft 226kts
06-Nov-17 11:21 33.702989 -115.262914 86 11651ft 219kts
06-Nov-17 11:22 33.697974 -115.191494 102 10552ft 212kts
06-Nov-17 11:23 33.684343 -115.123278 105 9466ft 208kts
06-Nov-17 11:24 33.668568 -115.056357 105 8285ft 205kts
06-Nov-17 11:25 33.652844 -114.991795 104 7252ft 198kts
06-Nov-17 11:26 33.638098 -114.931706 104 6670ft 175kts
06-Nov-17 11:27 33.624793 -114.877747 103 6306ft 158kts
06-Nov-17 11:28 33.612756 -114.829153 103 6079ft 147kts
06-Nov-17 11:29 33.605767 -114.784063 81 5960ft 133kts
06-Nov-17 11:30 33.607299 -114.739814 91 5774ft 133kts
06-Nov-17 11:31 33.603705 -114.695702 91 5587ft 132kts
06-Nov-17 11:32 33.616875 -114.661003 27 5387ft 119kts
06-Nov-17 11:33 33.643607 -114.634480 41 4976ft 135kts
06-Nov-17 11:34 33.660892 -114.593338 63 4552ft 141kts
06-Nov-17 11:35 33.675334 -114.552564 63 4339ft 134kts
06-Nov-17 11:36 33.668843 -114.510614 108 4217ft 126kts
06-Nov-17 11:37 33.658148 -114.472900 72 4226ft 106kts
06-Nov-17 11:38 33.677005 -114.479817 288 4295ft 115kts
06-Nov-17 11:39 33.682935 -114.517906 254 4487ft 122kts
06-Nov-17 11:40 33.671716 -114.554974 254 4204ft 107kts
06-Nov-17 11:41 33.658814 -114.583455 237 3652ft 96kts
06-Nov-17 11:42 33.643735 -114.609720 237 3006ft 96kts
06-Nov-17 11:43 33.628269 -114.635673 237 2238ft 95kts
06-Nov-17 11:44 33.616982 -114.664131 256 1379ft 97kts
06-Nov-17 11:45 33.616294 -114.695027 270 588ft 86kts
06-Nov-17 11:46 33.616526 -114.717041 293 394ft 20kts
06-Nov-17 11:47 33.614207 -114.714524 141 393ft 1kts

Navigation Log

Ident Type
Flight plan parsing failed, navigation log unavailable